createdAt,value
2022-10-10T00:01:23.771Z,96.64
2022-10-10T00:03:50.603Z,96.70
2022-10-10T00:06:17.879Z,96.26
2022-10-10T00:08:45.447Z,96.09
2022-10-10T00:11:13.458Z,96.12
2022-10-10T00:13:40.724Z,95.73
2022-10-10T00:16:07.378Z,95.53
2022-10-10T00:18:34.497Z,96.48
2022-10-10T00:21:01.331Z,96.36
2022-10-10T00:23:28.218Z,96.14
2022-10-10T00:25:55.110Z,95.26
2022-10-10T00:28:21.968Z,94.92
2022-10-10T00:30:48.725Z,95.38
2022-10-10T00:33:15.427Z,95.63
2022-10-10T00:35:42.490Z,94.67
2022-10-10T00:38:09.448Z,94.40
2022-10-10T00:40:44.142Z,94.35
2022-10-10T00:43:13.442Z,95.24
2022-10-10T00:45:42.378Z,95.39
2022-10-10T00:48:13.878Z,96.04
2022-10-10T00:50:46.397Z,95.38
2022-10-10T00:53:17.308Z,94.77
2022-10-10T00:55:45.182Z,93.53
2022-10-10T00:58:12.608Z,93.10
2022-10-10T01:00:39.332Z,94.10
2022-10-10T01:03:05.989Z,94.54
2022-10-10T01:05:33.829Z,94.34
2022-10-10T01:08:02.294Z,93.94
2022-10-10T01:10:29.199Z,94.17
2022-10-10T01:12:58.510Z,94.10
2022-10-10T01:15:55.200Z,93.68
2022-10-10T01:18:27.590Z,94.11
2022-10-10T01:20:57.139Z,94.63
2022-10-10T01:23:29.809Z,95.03
2022-10-10T01:25:59.306Z,95.15
2022-10-10T01:28:50.073Z,95.30
2022-10-10T01:31:22.549Z,95.53
2022-10-10T01:34:17.181Z,94.78
2022-10-10T01:37:09.128Z,94.86
2022-10-10T01:40:12.573Z,94.77
2022-10-10T01:42:42.030Z,94.92
2022-10-10T01:45:09.488Z,95.48
2022-10-10T01:47:36.131Z,94.56
2022-10-10T01:50:09.268Z,94.04
2022-10-10T01:53:16.946Z,94.43
2022-10-10T01:55:54.955Z,94.39
2022-10-10T01:58:45.531Z,94.94
2022-10-10T02:01:37.092Z,94.92
2022-10-10T02:04:30.213Z,94.76
2022-10-10T02:07:06.634Z,95.47
2022-10-10T02:09:42.650Z,95.23
2022-10-10T02:12:12.549Z,94.46
2022-10-10T02:14:50.670Z,95.19
2022-10-10T02:17:18.398Z,94.38
2022-10-10T02:19:50.993Z,95.12
2022-10-10T02:22:20.876Z,94.87
2022-10-10T02:24:47.760Z,94.96
2022-10-10T02:27:23.782Z,93.44
2022-10-10T02:29:52.675Z,93.42
2022-10-10T02:32:31.658Z,93.36
2022-10-10T02:35:05.824Z,92.82
2022-10-10T02:37:33.210Z,92.56
2022-10-10T02:40:02.547Z,91.80
2022-10-10T02:42:30.106Z,92.48
2022-10-10T02:44:57.611Z,92.20
2022-10-10T02:47:24.433Z,92.33
2022-10-10T02:49:51.240Z,91.93
2022-10-10T02:52:18.363Z,93.48
2022-10-10T02:54:44.929Z,92.48
2022-10-10T02:57:12.285Z,92.46
2022-10-10T02:59:38.925Z,92.26
2022-10-10T03:02:06.386Z,93.46
2022-10-10T03:04:33.073Z,93.05
2022-10-10T03:06:59.712Z,92.73
2022-10-10T03:09:26.331Z,92.89
2022-10-10T03:11:52.992Z,92.44
2022-10-10T03:14:19.603Z,92.69
2022-10-10T03:16:46.249Z,93.47
2022-10-10T03:19:12.846Z,93.31
2022-10-10T03:21:39.625Z,93.58
2022-10-10T03:24:06.370Z,94.03
2022-10-10T03:26:32.988Z,93.50
2022-10-10T03:29:02.222Z,93.38
2022-10-10T03:31:29.314Z,94.11
2022-10-10T03:33:55.842Z,94.59
2022-10-10T03:36:23.185Z,94.82
2022-10-10T03:38:49.776Z,94.80
2022-10-10T03:41:16.389Z,95.22
2022-10-10T03:43:43.000Z,95.45
2022-10-10T03:46:15.083Z,95.04
2022-10-10T03:48:43.092Z,94.91
2022-10-10T03:51:09.891Z,94.83
2022-10-10T03:53:37.122Z,94.71
2022-10-10T03:56:04.181Z,94.94
2022-10-10T03:58:31.044Z,94.45
2022-10-10T04:01:00.765Z,95.16
2022-10-10T04:03:28.187Z,94.75
2022-10-10T04:05:55.191Z,95.20
2022-10-10T04:08:21.851Z,94.92
2022-10-10T04:10:52.949Z,94.08
2022-10-10T04:13:21.110Z,93.79
2022-10-10T04:15:51.944Z,94.65
2022-10-10T04:18:19.506Z,94.88
2022-10-10T04:20:46.093Z,95.65
2022-10-10T04:23:12.786Z,95.68
2022-10-10T04:25:39.536Z,95.96
2022-10-10T04:28:06.258Z,95.93
2022-10-10T04:30:34.713Z,95.28
2022-10-10T04:33:01.608Z,94.77
2022-10-10T04:35:28.318Z,94.38
2022-10-10T04:37:55.051Z,94.21
2022-10-10T04:40:26.386Z,94.97
2022-10-10T04:42:54.775Z,95.10
2022-10-10T04:45:21.669Z,95.67
2022-10-10T04:47:48.469Z,95.66
2022-10-10T04:50:15.125Z,95.08
2022-10-10T04:52:41.910Z,95.91
2022-10-10T04:55:08.711Z,96.30
2022-10-10T04:57:35.364Z,96.02
2022-10-10T05:00:03.071Z,95.87
2022-10-10T05:02:29.737Z,95.92
2022-10-10T05:04:56.318Z,95.85
2022-10-10T05:07:23.923Z,96.46
2022-10-10T05:09:50.724Z,96.33
2022-10-10T05:12:17.385Z,96.31
2022-10-10T05:14:47.910Z,96.20
2022-10-10T05:17:15.344Z,97.15
2022-10-10T05:19:41.909Z,97.57
2022-10-10T05:22:08.565Z,97.19
2022-10-10T05:24:35.155Z,97.02
2022-10-10T05:27:01.767Z,96.16
2022-10-10T05:29:28.497Z,96.31
2022-10-10T05:31:55.246Z,95.86
2022-10-10T05:34:21.911Z,95.71
2022-10-10T05:36:48.600Z,96.34
2022-10-10T05:39:15.249Z,96.52
2022-10-10T05:41:41.877Z,96.62
2022-10-10T05:44:09.221Z,95.58
2022-10-10T05:46:35.903Z,96.77
2022-10-10T05:49:02.484Z,96.87
2022-10-10T05:51:29.167Z,96.53
2022-10-10T05:53:57.417Z,96.39
2022-10-10T05:56:24.122Z,96.93
2022-10-10T05:58:51.576Z,96.69
2022-10-10T06:01:18.578Z,96.99
2022-10-10T06:03:45.160Z,97.19
2022-10-10T06:06:11.810Z,97.40
2022-10-10T06:08:38.469Z,97.21
2022-10-10T06:11:11.169Z,96.40
2022-10-10T06:13:38.626Z,97.05
2022-10-10T06:16:05.297Z,97.04
2022-10-10T06:18:31.960Z,96.53
2022-10-10T06:21:02.946Z,96.46
2022-10-10T06:23:29.594Z,97.06
2022-10-10T06:25:56.260Z,97.50
2022-10-10T06:28:23.323Z,97.40
2022-10-10T06:30:51.260Z,97.46
2022-10-10T06:33:19.352Z,97.39
2022-10-10T06:35:48.472Z,97.05
2022-10-10T06:38:16.500Z,97.76
2022-10-10T06:40:43.477Z,98.05
2022-10-10T06:43:12.337Z,97.63
2022-10-10T06:45:40.976Z,97.37
2022-10-10T06:48:08.942Z,97.50
2022-10-10T06:50:35.876Z,98.16
2022-10-10T06:53:02.573Z,98.25
2022-10-10T06:55:29.338Z,98.09
2022-10-10T06:57:56.086Z,98.85
2022-10-10T07:00:22.883Z,99.64
2022-10-10T07:02:49.960Z,99.88
2022-10-10T07:05:18.139Z,99.72
2022-10-10T07:07:45.278Z,99.30
2022-10-10T07:10:14.167Z,98.74
2022-10-10T07:12:44.705Z,98.75
2022-10-10T07:15:12.646Z,98.94
2022-10-10T07:17:39.484Z,97.96
2022-10-10T07:20:07.127Z,97.80
2022-10-10T07:22:33.892Z,98.01
2022-10-10T07:25:00.560Z,98.12
2022-10-10T07:27:27.414Z,97.86
2022-10-10T07:29:54.194Z,97.67
2022-10-10T07:32:20.791Z,97.84
2022-10-10T07:34:47.439Z,98.12
2022-10-10T07:37:14.028Z,97.88
2022-10-10T07:39:40.762Z,97.03
2022-10-10T07:42:07.446Z,97.59
2022-10-10T07:44:34.820Z,97.85
2022-10-10T07:47:01.879Z,97.70
2022-10-10T07:49:28.811Z,97.94
2022-10-10T07:52:00.550Z,97.95
2022-10-10T07:54:31.807Z,95.99
2022-10-10T07:56:59.191Z,95.93
2022-10-10T07:59:26.117Z,95.91
2022-10-10T08:01:53.018Z,96.27
2022-10-10T08:04:20.275Z,96.89
2022-10-10T08:06:46.981Z,98.05
2022-10-10T08:09:13.623Z,97.15
2022-10-10T08:11:40.426Z,97.40
2022-10-10T08:14:06.988Z,97.06
2022-10-10T08:16:33.697Z,97.78
2022-10-10T08:19:00.288Z,97.89
2022-10-10T08:21:27.050Z,97.77
2022-10-10T08:23:53.642Z,97.93
2022-10-10T08:26:20.503Z,98.19
2022-10-10T08:28:48.682Z,97.67
2022-10-10T08:31:19.536Z,97.06
2022-10-10T08:33:47.789Z,96.07
2022-10-10T08:36:18.364Z,96.31
2022-10-10T08:38:45.653Z,96.21
2022-10-10T08:41:26.213Z,96.06
2022-10-10T08:43:58.367Z,96.26
2022-10-10T08:46:43.688Z,96.59
2022-10-10T08:49:30.682Z,96.97
2022-10-10T08:52:08.054Z,98.07
2022-10-10T08:54:37.338Z,99.00
2022-10-10T08:57:06.894Z,98.34
2022-10-10T08:59:38.515Z,98.36
2022-10-10T09:02:43.551Z,98.67
2022-10-10T09:05:18.472Z,98.62
2022-10-10T09:08:00.266Z,98.99
2022-10-10T09:10:49.929Z,99.28
2022-10-10T09:13:25.398Z,98.68
2022-10-10T09:15:57.599Z,98.59
2022-10-10T09:18:43.043Z,98.87
2022-10-10T09:21:22.148Z,98.79
2022-10-10T09:24:05.515Z,99.07
2022-10-10T09:26:47.888Z,98.75
2022-10-10T09:29:23.723Z,98.61
2022-10-10T09:31:56.797Z,98.39
2022-10-10T09:34:38.617Z,98.14
2022-10-10T09:37:24.206Z,98.02
2022-10-10T09:40:03.266Z,97.47
2022-10-10T09:42:38.665Z,97.92
2022-10-10T09:45:37.522Z,97.75
2022-10-10T09:48:04.663Z,97.97
2022-10-10T09:50:31.403Z,97.82
2022-10-10T09:52:58.417Z,96.98
2022-10-10T09:55:30.518Z,97.15
2022-10-10T09:58:04.017Z,97.16
2022-10-10T10:00:36.562Z,98.81
2022-10-10T10:03:12.606Z,98.71
2022-10-10T10:05:41.826Z,98.82
2022-10-10T10:08:35.452Z,98.82
2022-10-10T10:11:04.170Z,99.03
2022-10-10T10:13:36.387Z,98.77
2022-10-10T10:16:36.650Z,98.93
2022-10-10T10:19:04.703Z,99.01
2022-10-10T10:21:32.296Z,99.80
2022-10-10T10:23:58.949Z,99.75
2022-10-10T10:26:51.134Z,100.00
2022-10-10T10:29:31.606Z,99.02
2022-10-10T10:32:18.954Z,98.19
2022-10-10T10:34:57.684Z,97.20
2022-10-10T10:37:36.016Z,97.73
2022-10-10T10:40:04.358Z,97.87
2022-10-10T10:42:42.680Z,97.79
2022-10-10T10:45:28.983Z,97.89
2022-10-10T10:48:23.141Z,97.88
2022-10-10T10:50:55.583Z,96.19
2022-10-10T10:53:36.130Z,96.35
2022-10-10T10:56:46.667Z,97.20
2022-10-10T11:00:26.868Z,98.25
2022-10-10T11:02:59.759Z,96.59
2022-10-10T11:05:41.769Z,96.20
2022-10-10T11:08:33.710Z,95.65
2022-10-10T11:11:09.078Z,95.88
2022-10-10T11:14:00.419Z,96.77
2022-10-10T11:16:47.485Z,96.62
2022-10-10T11:19:15.390Z,96.45
2022-10-10T11:21:49.560Z,95.53
2022-10-10T11:24:33.694Z,96.88
2022-10-10T11:27:07.495Z,96.34
2022-10-10T11:29:51.190Z,96.25
2022-10-10T11:32:43.121Z,95.19
2022-10-10T11:35:36.682Z,95.10
2022-10-10T11:38:12.770Z,94.05
2022-10-10T11:40:55.282Z,92.14
2022-10-10T11:43:35.032Z,91.71
2022-10-10T11:46:39.421Z,91.44
2022-10-10T11:49:14.184Z,91.14
2022-10-10T11:52:32.033Z,91.44
2022-10-10T11:55:03.891Z,91.51
2022-10-10T11:57:47.875Z,91.45
2022-10-10T12:00:17.896Z,90.68
2022-10-10T12:02:47.254Z,91.56
2022-10-10T12:05:26.186Z,91.64
2022-10-10T12:08:21.966Z,91.64
2022-10-10T12:10:58.701Z,92.62
2022-10-10T12:13:34.206Z,93.87
2022-10-10T12:16:13.053Z,93.48
2022-10-10T12:18:53.111Z,94.42
2022-10-10T12:21:22.702Z,93.72
2022-10-10T12:23:57.412Z,93.68
2022-10-10T12:26:24.458Z,93.16
2022-10-10T12:29:10.425Z,92.64
2022-10-10T12:31:37.885Z,94.46
2022-10-10T12:34:10.435Z,94.72
2022-10-10T12:36:40.083Z,94.61
2022-10-10T12:39:07.873Z,94.34
2022-10-10T12:41:47.205Z,94.27
2022-10-10T12:44:23.690Z,94.35
2022-10-10T12:48:04.428Z,94.48
2022-10-10T12:50:37.005Z,94.57
2022-10-10T12:53:12.446Z,94.93
2022-10-10T12:55:46.956Z,93.93
2022-10-10T12:58:28.375Z,93.98
2022-10-10T13:01:01.309Z,93.01
2022-10-10T13:03:44.548Z,93.78
2022-10-10T13:06:40.364Z,93.27
2022-10-10T13:09:10.950Z,93.97
2022-10-10T13:12:29.821Z,94.02
2022-10-10T13:14:57.530Z,94.02
2022-10-10T13:17:32.031Z,93.46
2022-10-10T13:20:00.888Z,91.41
2022-10-10T13:22:30.096Z,91.08
2022-10-10T13:24:58.252Z,91.34
2022-10-10T13:27:35.153Z,90.41
2022-10-10T13:30:02.588Z,91.09
2022-10-10T13:32:33.375Z,91.12
2022-10-10T13:35:06.480Z,94.38
2022-10-10T13:37:33.913Z,92.36
2022-10-10T13:40:01.261Z,91.01
2022-10-10T13:42:33.123Z,89.89
2022-10-10T13:45:01.400Z,87.75
2022-10-10T13:47:40.085Z,90.27
2022-10-10T13:50:20.835Z,90.52
2022-10-10T13:52:47.517Z,91.80
2022-10-10T13:55:20.771Z,91.23
2022-10-10T13:57:51.504Z,91.42
2022-10-10T14:00:24.944Z,92.21
2022-10-10T14:02:51.765Z,91.29
2022-10-10T14:05:29.526Z,90.32
2022-10-10T14:07:57.636Z,91.16
2022-10-10T14:10:27.344Z,92.41
2022-10-10T14:13:00.558Z,93.15
2022-10-10T14:15:42.461Z,93.73
2022-10-10T14:18:24.584Z,94.87
2022-10-10T14:20:53.580Z,95.21
2022-10-10T14:23:20.332Z,94.69
2022-10-10T14:25:49.244Z,94.32
2022-10-10T14:28:19.993Z,92.44
2022-10-10T14:30:48.098Z,92.78
2022-10-10T14:33:18.252Z,92.81
2022-10-10T14:35:46.700Z,93.75
2022-10-10T14:38:15.079Z,93.56
2022-10-10T14:40:45.065Z,94.22
2022-10-10T14:43:12.357Z,94.01
2022-10-10T14:45:39.363Z,92.92
2022-10-10T14:48:06.480Z,93.01
2022-10-10T14:50:38.306Z,93.24
2022-10-10T14:53:05.090Z,93.45
2022-10-10T14:55:31.721Z,93.06
2022-10-10T14:58:01.157Z,93.23
2022-10-10T15:00:34.340Z,95.39
2022-10-10T15:03:10.273Z,95.04
2022-10-10T15:05:36.964Z,95.85
2022-10-10T15:08:10.176Z,95.60
2022-10-10T15:10:37.178Z,95.60
2022-10-10T15:13:03.778Z,96.49
2022-10-10T15:15:30.704Z,93.60
2022-10-10T15:18:52.669Z,91.62
2022-10-10T15:21:15.794Z,92.22
2022-10-10T15:24:01.013Z,91.81
2022-10-10T15:26:35.094Z,93.61
2022-10-10T15:29:17.576Z,94.00
2022-10-10T15:31:51.169Z,96.16
2022-10-10T15:34:37.682Z,96.76
2022-10-10T15:37:15.524Z,98.01
2022-10-10T15:39:51.905Z,98.56
2022-10-10T15:42:34.008Z,97.97
2022-10-10T15:45:03.168Z,99.55
2022-10-10T15:47:29.859Z,100.00
2022-10-10T15:49:56.636Z,100.00
2022-10-10T15:52:23.345Z,99.80
2022-10-10T15:54:50.194Z,100.00
2022-10-10T15:57:18.689Z,100.00
2022-10-10T15:59:46.604Z,99.69
2022-10-10T16:02:13.726Z,98.94
2022-10-10T16:04:40.679Z,98.86
2022-10-10T16:09:54.334Z,96.79
2022-10-10T16:12:21.266Z,97.27
2022-10-10T16:14:48.034Z,97.75
2022-10-10T16:17:15.986Z,97.38
2022-10-10T16:19:44.216Z,96.84
2022-10-10T16:22:10.842Z,97.88
2022-10-10T16:24:37.536Z,98.54
2022-10-10T16:27:04.156Z,98.01
2022-10-10T16:29:31.006Z,97.63
2022-10-10T16:31:57.916Z,98.47
2022-10-10T16:34:24.669Z,99.27
2022-10-10T16:36:51.302Z,99.39
2022-10-10T16:39:18.000Z,100.00
2022-10-10T16:41:48.986Z,100.00
2022-10-10T16:44:17.366Z,100.00
2022-10-10T16:46:44.557Z,99.95
2022-10-10T16:49:13.278Z,99.82
2022-10-10T16:51:40.234Z,99.87
2022-10-10T16:54:07.323Z,99.63
2022-10-10T16:56:34.940Z,99.57
2022-10-10T16:59:02.277Z,98.02
2022-10-10T17:01:29.293Z,96.94
2022-10-10T17:04:00.000Z,96.85
2022-10-10T17:06:32.632Z,94.35
2022-10-10T17:09:02.994Z,94.53
2022-10-10T17:11:29.643Z,94.06
2022-10-10T17:13:56.525Z,94.18
2022-10-10T17:19:12.298Z,94.14
2022-10-10T17:21:38.944Z,94.60
2022-10-10T17:24:05.820Z,95.12
2022-10-10T17:26:32.474Z,94.27
2022-10-10T17:28:59.756Z,94.36
2022-10-10T17:31:27.303Z,94.45
2022-10-10T17:33:55.018Z,94.66
2022-10-10T17:36:23.931Z,95.15
2022-10-10T17:38:51.196Z,94.88
2022-10-10T17:41:18.712Z,94.58
2022-10-10T17:43:45.833Z,93.93
2022-10-10T17:46:34.249Z,93.73
2022-10-10T17:49:06.181Z,92.99
2022-10-10T17:51:34.129Z,93.04
2022-10-10T17:54:01.860Z,92.75
2022-10-10T17:56:29.009Z,93.47
2022-10-10T17:58:55.836Z,93.47
2022-10-10T18:01:23.114Z,93.47
2022-10-10T18:03:49.901Z,93.47
2022-10-10T18:06:20.360Z,93.11
2022-10-10T18:08:48.066Z,92.47
2022-10-10T18:11:17.201Z,93.07
2022-10-10T18:13:44.715Z,93.54
2022-10-10T18:16:17.659Z,93.12
2022-10-10T18:18:50.632Z,92.77
2022-10-10T18:21:19.747Z,93.14
2022-10-10T18:23:46.349Z,92.98
2022-10-10T18:26:16.532Z,93.75
2022-10-10T18:28:43.517Z,93.35
2022-10-10T18:31:14.459Z,92.92
2022-10-10T18:33:42.194Z,93.23
2022-10-10T18:36:09.692Z,92.18
2022-10-10T18:38:37.651Z,91.54
2022-10-10T18:41:10.520Z,92.21
2022-10-10T18:43:38.419Z,91.72
2022-10-10T18:46:07.764Z,91.69
2022-10-10T18:48:35.363Z,92.39
2022-10-10T18:51:09.038Z,91.29
2022-10-10T18:53:37.349Z,91.75
2022-10-10T18:56:04.385Z,92.33
2022-10-10T18:58:31.722Z,92.61
2022-10-10T19:01:00.546Z,92.68
2022-10-10T19:03:28.464Z,92.03
2022-10-10T19:05:55.096Z,92.38
2022-10-10T19:08:21.942Z,91.81
2022-10-10T19:10:50.018Z,92.44
2022-10-10T19:13:17.941Z,92.09
2022-10-10T19:15:44.652Z,91.32
2022-10-10T19:18:11.438Z,90.90
2022-10-10T19:20:39.179Z,90.54
2022-10-10T19:23:06.618Z,91.16
2022-10-10T19:25:40.351Z,89.96
2022-10-10T19:28:07.722Z,89.84
2022-10-10T19:30:42.384Z,90.36
2022-10-10T19:33:09.699Z,90.54
2022-10-10T19:35:38.153Z,89.70
2022-10-10T19:38:06.351Z,88.82
2022-10-10T19:40:36.816Z,89.08
2022-10-10T19:43:03.579Z,88.68
2022-10-10T19:45:30.141Z,88.96
2022-10-10T19:47:56.864Z,90.02
2022-10-10T19:50:23.463Z,89.56
2022-10-10T19:52:50.079Z,89.82
2022-10-10T19:55:18.901Z,90.13
2022-10-10T19:57:45.700Z,89.80
2022-10-10T20:00:12.968Z,90.51
2022-10-10T20:02:39.714Z,88.83
2022-10-10T20:05:12.283Z,88.31
2022-10-10T20:07:39.153Z,88.55
2022-10-10T20:10:06.765Z,89.00
2022-10-10T20:12:34.564Z,89.27
2022-10-10T20:15:01.119Z,89.41
2022-10-10T20:17:28.613Z,87.90
2022-10-10T20:19:56.191Z,88.79
2022-10-10T20:22:23.085Z,89.69
2022-10-10T20:24:49.721Z,89.67
2022-10-10T20:27:16.477Z,88.85
2022-10-10T20:29:43.156Z,88.71
2022-10-10T20:32:10.211Z,88.48
2022-10-10T20:34:37.097Z,88.84
2022-10-10T20:37:04.367Z,87.88
2022-10-10T20:39:30.988Z,88.69
2022-10-10T20:41:57.664Z,89.28
2022-10-10T20:44:27.703Z,89.19
2022-10-10T20:46:54.810Z,89.01
2022-10-10T20:49:22.910Z,87.75
2022-10-10T20:51:52.138Z,87.33
2022-10-10T20:54:22.217Z,87.73
2022-10-10T20:56:49.868Z,89.14
2022-10-10T20:59:18.123Z,89.85
2022-10-10T21:01:47.838Z,89.96
2022-10-10T21:04:14.913Z,89.33
2022-10-10T21:06:44.950Z,88.99
2022-10-10T21:09:14.029Z,89.60
2022-10-10T21:11:41.185Z,89.28
2022-10-10T21:14:08.373Z,88.91
2022-10-10T21:16:39.128Z,89.26
2022-10-10T21:19:07.318Z,88.23
2022-10-10T21:21:36.041Z,88.29
2022-10-10T21:24:05.962Z,87.34
2022-10-10T21:26:33.215Z,86.41
2022-10-10T21:29:01.186Z,86.66
2022-10-10T21:31:32.640Z,86.62
2022-10-10T21:34:02.322Z,87.89
2022-10-10T21:36:30.654Z,87.13
2022-10-10T21:38:59.139Z,86.23
2022-10-10T21:41:26.397Z,85.97
2022-10-10T21:43:57.315Z,87.76
2022-10-10T21:46:34.722Z,87.30
2022-10-10T21:49:05.596Z,87.81
2022-10-10T21:51:35.978Z,88.89
2022-10-10T21:54:02.827Z,87.60
2022-10-10T21:56:29.389Z,87.17
2022-10-10T21:59:00.271Z,87.95
2022-10-10T22:01:27.993Z,87.65
2022-10-10T22:03:56.333Z,87.29
2022-10-10T22:06:24.761Z,87.00
2022-10-10T22:08:55.810Z,86.64
2022-10-10T22:11:25.335Z,87.03
2022-10-10T22:13:52.630Z,86.61
2022-10-10T22:16:19.948Z,86.47
2022-10-10T22:18:46.556Z,87.78
2022-10-10T22:21:15.727Z,87.07
2022-10-10T22:23:43.524Z,87.25
2022-10-10T22:26:12.795Z,86.63
2022-10-10T22:28:39.479Z,86.52
2022-10-10T22:31:11.646Z,86.33
2022-10-10T22:33:38.644Z,86.31
2022-10-10T22:36:06.883Z,86.54
2022-10-10T22:38:37.855Z,87.06
2022-10-10T22:41:04.559Z,87.70
2022-10-10T22:43:31.303Z,87.06
2022-10-10T22:45:58.108Z,86.01
2022-10-10T22:48:25.306Z,84.99
2022-10-10T22:51:07.285Z,85.74
2022-10-10T22:53:33.951Z,86.02
2022-10-10T22:56:00.554Z,85.81
2022-10-10T22:58:27.305Z,86.67
2022-10-10T23:00:54.068Z,86.35
2022-10-10T23:03:20.781Z,85.60
2022-10-10T23:05:47.467Z,86.53
2022-10-10T23:08:14.360Z,86.13
2022-10-10T23:10:40.951Z,85.88
2022-10-10T23:13:07.581Z,86.05
2022-10-10T23:15:34.188Z,85.66
2022-10-10T23:18:00.919Z,85.96
2022-10-10T23:20:27.595Z,86.14
2022-10-10T23:22:54.767Z,86.71
2022-10-10T23:25:21.552Z,86.63
2022-10-10T23:27:48.261Z,87.02
2022-10-10T23:30:15.165Z,87.44
2022-10-10T23:32:41.988Z,86.84
2022-10-10T23:35:09.253Z,87.58
2022-10-10T23:37:35.893Z,88.05
2022-10-10T23:40:02.529Z,86.38
2022-10-10T23:42:29.168Z,85.93
2022-10-10T23:44:55.743Z,86.85
2022-10-10T23:47:22.376Z,87.50
2022-10-10T23:49:48.926Z,87.37
2022-10-10T23:52:15.869Z,88.87
2022-10-10T23:54:42.493Z,88.95
2022-10-10T23:57:09.188Z,89.85
2022-10-10T23:59:35.869Z,89.89
